sensor_id;sensor_type;location;lat;lon;timestamp;temperature;humidity
72646;DHT22;60687;53.876;10.674;2024-02-23T00:03:33;10.90;95.90
72646;DHT22;60687;53.876;10.674;2024-02-23T00:13:38;10.70;92.90
72646;DHT22;60687;53.876;10.674;2024-02-23T00:23:43;10.50;91.00
72646;DHT22;60687;53.876;10.674;2024-02-23T00:33:46;10.40;91.50
72646;DHT22;60687;53.876;10.674;2024-02-23T00:43:52;10.20;90.10
72646;DHT22;60687;53.876;10.674;2024-02-23T00:53:55;10.20;90.20
72646;DHT22;60687;53.876;10.674;2024-02-23T01:04:00;10.00;91.30
72646;DHT22;60687;53.876;10.674;2024-02-23T01:14:03;10.00;89.60
72646;DHT22;60687;53.876;10.674;2024-02-23T01:24:12;9.80;83.90
72646;DHT22;60687;53.876;10.674;2024-02-23T01:34:18;9.70;92.60
72646;DHT22;60687;53.876;10.674;2024-02-23T01:44:22;9.10;95.00
72646;DHT22;60687;53.876;10.674;2024-02-23T01:54:25;8.70;95.80
72646;DHT22;60687;53.876;10.674;2024-02-23T02:04:30;8.50;95.50
72646;DHT22;60687;53.876;10.674;2024-02-23T02:14:33;8.40;96.40
72646;DHT22;60687;53.876;10.674;2024-02-23T02:24:38;8.30;96.20
72646;DHT22;60687;53.876;10.674;2024-02-23T02:34:43;8.20;95.10
72646;DHT22;60687;53.876;10.674;2024-02-23T02:44:48;8.10;94.50
72646;DHT22;60687;53.876;10.674;2024-02-23T02:54:51;8.00;94.90
72646;DHT22;60687;53.876;10.674;2024-02-23T03:04:55;7.80;95.40
72646;DHT22;60687;53.876;10.674;2024-02-23T03:14:58;7.60;95.70
72646;DHT22;60687;53.876;10.674;2024-02-23T03:25:07;7.50;96.90
72646;DHT22;60687;53.876;10.674;2024-02-23T03:35:11;7.30;96.60
72646;DHT22;60687;53.876;10.674;2024-02-23T03:45:15;7.30;95.20
72646;DHT22;60687;53.876;10.674;2024-02-23T03:55:17;7.20;95.90
72646;DHT22;60687;53.876;10.674;2024-02-23T04:05:21;7.10;96.30
72646;DHT22;60687;53.876;10.674;2024-02-23T04:15:24;7.10;97.10
72646;DHT22;60687;53.876;10.674;2024-02-23T04:25:32;7.00;96.20
72646;DHT22;60687;53.876;10.674;2024-02-23T04:35:35;6.90;95.30
72646;DHT22;60687;53.876;10.674;2024-02-23T04:45:40;6.80;94.70
72646;DHT22;60687;53.876;10.674;2024-02-23T04:55:43;6.70;95.80
72646;DHT22;60687;53.876;10.674;2024-02-23T05:05:47;6.70;94.80
72646;DHT22;60687;53.876;10.674;2024-02-23T05:15:55;6.60;94.50
72646;DHT22;60687;53.876;10.674;2024-02-23T05:26:00;6.60;95.80
72646;DHT22;60687;53.876;10.674;2024-02-23T05:36:03;6.60;95.90
72646;DHT22;60687;53.876;10.674;2024-02-23T05:46:08;6.60;95.30
72646;DHT22;60687;53.876;10.674;2024-02-23T05:56:12;6.60;95.50
72646;DHT22;60687;53.876;10.674;2024-02-23T06:06:17;6.50;96.00
72646;DHT22;60687;53.876;10.674;2024-02-23T06:16:22;6.50;95.70
72646;DHT22;60687;53.876;10.674;2024-02-23T06:26:26;6.50;95.00
72646;DHT22;60687;53.876;10.674;2024-02-23T06:36:30;6.50;94.20
72646;DHT22;60687;53.876;10.674;2024-02-23T06:46:34;6.50;94.40
72646;DHT22;60687;53.876;10.674;2024-02-23T06:56:37;6.40;93.50
72646;DHT22;60687;53.876;10.674;2024-02-23T07:06:42;6.40;94.50
72646;DHT22;60687;53.876;10.674;2024-02-23T07:16:45;6.50;94.30
72646;DHT22;60687;53.876;10.674;2024-02-23T07:26:50;6.50;94.60
72646;DHT22;60687;53.876;10.674;2024-02-23T07:36:54;6.40;93.80
72646;DHT22;60687;53.876;10.674;2024-02-23T07:46:58;6.50;92.90
72646;DHT22;60687;53.876;10.674;2024-02-23T07:57:00;6.50;92.90
72646;DHT22;60687;53.876;10.674;2024-02-23T08:07:14;6.50;93.40
72646;DHT22;60687;53.876;10.674;2024-02-23T08:17:20;6.50;93.70
72646;DHT22;60687;53.876;10.674;2024-02-23T08:38:05;6.60;94.20
72646;DHT22;60687;53.876;10.674;2024-02-23T08:48:08;6.70;94.60
72646;DHT22;60687;53.876;10.674;2024-02-23T08:58:13;6.90;92.70
72646;DHT22;60687;53.876;10.674;2024-02-23T09:08:26;7.20;92.20
72646;DHT22;60687;53.876;10.674;2024-02-23T09:18:35;7.50;92.50
72646;DHT22;60687;53.876;10.674;2024-02-23T09:28:41;7.90;91.70
72646;DHT22;60687;53.876;10.674;2024-02-23T09:38:56;7.90;89.70
72646;DHT22;60687;53.876;10.674;2024-02-23T09:49:03;8.10;86.00
72646;DHT22;60687;53.876;10.674;2024-02-23T09:59:12;8.30;84.60
72646;DHT22;60687;53.876;10.674;2024-02-23T10:09:24;8.30;79.30
72646;DHT22;60687;53.876;10.674;2024-02-23T10:19:34;8.40;81.80
72646;DHT22;60687;53.876;10.674;2024-02-23T10:29:38;8.50;81.10
72646;DHT22;60687;53.876;10.674;2024-02-23T10:39:44;8.60;78.50
72646;DHT22;60687;53.876;10.674;2024-02-23T10:49:56;8.70;80.70
72646;DHT22;60687;53.876;10.674;2024-02-23T11:00:34;8.80;78.40
72646;DHT22;60687;53.876;10.674;2024-02-23T11:10:52;8.70;75.60
72646;DHT22;60687;53.876;10.674;2024-02-23T11:21:04;8.70;73.30
72646;DHT22;60687;53.876;10.674;2024-02-23T11:31:15;8.70;71.30
72646;DHT22;60687;53.876;10.674;2024-02-23T11:41:32;8.80;71.60
72646;DHT22;60687;53.876;10.674;2024-02-23T11:51:42;8.80;70.90
72646;DHT22;60687;53.876;10.674;2024-02-23T12:01:55;8.90;73.10
72646;DHT22;60687;53.876;10.674;2024-02-23T12:12:19;8.90;71.20
72646;DHT22;60687;53.876;10.674;2024-02-23T12:22:26;9.00;72.80
72646;DHT22;60687;53.876;10.674;2024-02-23T12:32:30;9.00;68.90
72646;DHT22;60687;53.876;10.674;2024-02-23T12:42:38;9.00;70.60
72646;DHT22;60687;53.876;10.674;2024-02-23T12:52:42;9.00;71.20
72646;DHT22;60687;53.876;10.674;2024-02-23T13:02:48;9.00;72.20
72646;DHT22;60687;53.876;10.674;2024-02-23T13:13:28;9.00;71.20
72646;DHT22;60687;53.876;10.674;2024-02-23T13:23:41;8.90;67.70
72646;DHT22;60687;53.876;10.674;2024-02-23T13:33:46;8.90;70.30
72646;DHT22;60687;53.876;10.674;2024-02-23T13:43:52;9.00;68.70
72646;DHT22;60687;53.876;10.674;2024-02-23T13:53:59;8.90;69.10
72646;DHT22;60687;53.876;10.674;2024-02-23T14:04:13;8.90;66.70
72646;DHT22;60687;53.876;10.674;2024-02-23T14:14:19;8.80;66.40
72646;DHT22;60687;53.876;10.674;2024-02-23T14:24:35;8.80;66.60
72646;DHT22;60687;53.876;10.674;2024-02-23T14:35:06;8.80;66.40
72646;DHT22;60687;53.876;10.674;2024-02-23T14:45:29;8.80;67.60
72646;DHT22;60687;53.876;10.674;2024-02-23T14:55:38;8.80;68.10
72646;DHT22;60687;53.876;10.674;2024-02-23T15:05:45;8.80;67.00
72646;DHT22;60687;53.876;10.674;2024-02-23T15:15:56;8.80;66.80
72646;DHT22;60687;53.876;10.674;2024-02-23T15:26:10;8.80;69.00
72646;DHT22;60687;53.876;10.674;2024-02-23T15:36:28;8.80;69.00
72646;DHT22;60687;53.876;10.674;2024-02-23T15:46:36;8.80;68.90
72646;DHT22;60687;53.876;10.674;2024-02-23T15:56:44;8.80;68.80
72646;DHT22;60687;53.876;10.674;2024-02-23T16:06:51;8.70;69.80
72646;DHT22;60687;53.876;10.674;2024-02-23T16:16:58;8.70;71.40
72646;DHT22;60687;53.876;10.674;2024-02-23T16:27:03;8.70;71.40
72646;DHT22;60687;53.876;10.674;2024-02-23T16:37:38;8.60;72.20
72646;DHT22;60687;53.876;10.674;2024-02-23T16:48:07;8.60;71.80
72646;DHT22;60687;53.876;10.674;2024-02-23T16:58:21;8.60;71.40
72646;DHT22;60687;53.876;10.674;2024-02-23T17:08:37;8.50;72.70
72646;DHT22;60687;53.876;10.674;2024-02-23T17:19:13;8.40;73.60
72646;DHT22;60687;53.876;10.674;2024-02-23T17:29:21;8.30;72.80
72646;DHT22;60687;53.876;10.674;2024-02-23T17:39:37;8.30;73.70
72646;DHT22;60687;53.876;10.674;2024-02-23T17:49:41;8.20;74.50
72646;DHT22;60687;53.876;10.674;2024-02-23T17:59:54;8.10;75.20
72646;DHT22;60687;53.876;10.674;2024-02-23T18:10:06;8.00;75.10
72646;DHT22;60687;53.876;10.674;2024-02-23T18:20:18;8.00;76.40
72646;DHT22;60687;53.876;10.674;2024-02-23T18:30:22;8.00;75.70
72646;DHT22;60687;53.876;10.674;2024-02-23T18:40:25;8.00;76.80
72646;DHT22;60687;53.876;10.674;2024-02-23T18:50:38;8.00;77.90
72646;DHT22;60687;53.876;10.674;2024-02-23T19:01:25;7.90;80.10
72646;DHT22;60687;53.876;10.674;2024-02-23T19:12:00;7.90;80.00
72646;DHT22;60687;53.876;10.674;2024-02-23T19:22:24;7.70;80.20
72646;DHT22;60687;53.876;10.674;2024-02-23T19:33:14;7.70;81.60
72646;DHT22;60687;53.876;10.674;2024-02-23T19:54:50;7.50;82.50
72646;DHT22;60687;53.876;10.674;2024-02-23T20:05:11;7.50;83.40
72646;DHT22;60687;53.876;10.674;2024-02-23T20:26:53;7.30;84.50
72646;DHT22;60687;53.876;10.674;2024-02-23T20:37:08;7.20;85.30
72646;DHT22;60687;53.876;10.674;2024-02-23T20:47:52;7.20;85.50
72646;DHT22;60687;53.876;10.674;2024-02-23T20:58:54;7.10;86.50
72646;DHT22;60687;53.876;10.674;2024-02-23T21:09:54;7.10;86.80
72646;DHT22;60687;53.876;10.674;2024-02-23T21:20:21;7.00;88.50
72646;DHT22;60687;53.876;10.674;2024-02-23T21:30:52;7.00;88.70
72646;DHT22;60687;53.876;10.674;2024-02-23T21:41:23;6.90;89.00
72646;DHT22;60687;53.876;10.674;2024-02-23T21:51:51;6.90;89.50
72646;DHT22;60687;53.876;10.674;2024-02-23T22:02:38;6.90;90.20
72646;DHT22;60687;53.876;10.674;2024-02-23T22:13:03;6.80;89.60
72646;DHT22;60687;53.876;10.674;2024-02-23T22:23:21;6.80;89.20
72646;DHT22;60687;53.876;10.674;2024-02-23T22:34:14;6.70;90.00
72646;DHT22;60687;53.876;10.674;2024-02-23T22:45:02;6.70;90.20
72646;DHT22;60687;53.876;10.674;2024-02-23T22:56:01;6.60;90.30
72646;DHT22;60687;53.876;10.674;2024-02-23T23:07:23;6.50;90.30
72646;DHT22;60687;53.876;10.674;2024-02-23T23:17:50;6.40;90.70
72646;DHT22;60687;53.876;10.674;2024-02-23T23:28:00;6.40;90.90
72646;DHT22;60687;53.876;10.674;2024-02-23T23:38:10;6.30;91.10
72646;DHT22;60687;53.876;10.674;2024-02-23T23:48:48;6.30;91.50
72646;DHT22;60687;53.876;10.674;2024-02-23T23:59:01;6.20;91.80
